Brossard, Canada
Current Conditions -  °F | °C
As of 1:00 AM on Monday 24 Nov 2014 (Local Time) from CYHU Reporting Station
Overcast Overcast  
Wind Chill: 41°   Ceiling: 8700
Heat Index: 45°   Visibility: 9mi
Dew Point: 39°   Wind: 7mph
Humidity: 81%   Direction: 150°SSE
Pressure: 29.87"   Gusts: NA
Location:  45.45°N, 73.48°W
Report Text: CYHU 240600Z AUTO 15006KT 9SM SCT065 BKN087 OVC110 07/04 A2987 RMK PRESFR SLP114
Loading
Personal Weather Stations






























Interactive Weather Map New forecast layout! Learn more

10-Day Weather Forecast

Advertisements
Track Severe Weather on mobile